sensor_id;sensor_type;location;lat;lon;timestamp;P1;durP1;ratioP1;P2;durP2;ratioP2
67804;SDS011;54603;45.638;11.714;2022-07-22T00:01:13;6.50;;;5.40;;
67804;SDS011;54603;45.638;11.714;2022-07-22T00:03:38;6.30;;;5.30;;
67804;SDS011;54603;45.638;11.714;2022-07-22T00:06:04;7.70;;;5.30;;
67804;SDS011;54603;45.638;11.714;2022-07-22T00:08:30;5.70;;;5.20;;
67804;SDS011;54603;45.638;11.714;2022-07-22T00:10:56;5.70;;;5.10;;
67804;SDS011;54603;45.638;11.714;2022-07-22T00:13:21;5.90;;;5.10;;
67804;SDS011;54603;45.638;11.714;2022-07-22T00:15:47;6.00;;;5.00;;
67804;SDS011;54603;45.638;11.714;2022-07-22T00:18:12;6.60;;;5.20;;
67804;SDS011;54603;45.638;11.714;2022-07-22T00:20:38;6.30;;;5.20;;
67804;SDS011;54603;45.638;11.714;2022-07-22T00:23:04;5.80;;;5.00;;
67804;SDS011;54603;45.638;11.714;2022-07-22T00:25:29;6.10;;;5.10;;
67804;SDS011;54603;45.638;11.714;2022-07-22T00:27:55;6.00;;;5.00;;
67804;SDS011;54603;45.638;11.714;2022-07-22T00:30:21;5.70;;;4.90;;
67804;SDS011;54603;45.638;11.714;2022-07-22T00:32:47;8.00;;;5.60;;
67804;SDS011;54603;45.638;11.714;2022-07-22T00:35:12;6.50;;;5.30;;
67804;SDS011;54603;45.638;11.714;2022-07-22T00:37:38;6.20;;;5.30;;
67804;SDS011;54603;45.638;11.714;2022-07-22T00:40:04;6.70;;;5.70;;
67804;SDS011;54603;45.638;11.714;2022-07-22T00:42:30;7.40;;;5.40;;
67804;SDS011;54603;45.638;11.714;2022-07-22T00:44:56;8.50;;;5.60;;
67804;SDS011;54603;45.638;11.714;2022-07-22T00:47:22;6.40;;;5.00;;
67804;SDS011;54603;45.638;11.714;2022-07-22T00:49:48;8.60;;;5.80;;
67804;SDS011;54603;45.638;11.714;2022-07-22T00:52:14;8.30;;;5.90;;
67804;SDS011;54603;45.638;11.714;2022-07-22T00:54:39;7.90;;;5.60;;
67804;SDS011;54603;45.638;11.714;2022-07-22T00:57:05;7.10;;;5.80;;
67804;SDS011;54603;45.638;11.714;2022-07-22T00:59:31;6.40;;;5.70;;
67804;SDS011;54603;45.638;11.714;2022-07-22T01:01:56;7.20;;;5.90;;
67804;SDS011;54603;45.638;11.714;2022-07-22T01:04:22;6.60;;;5.80;;
67804;SDS011;54603;45.638;11.714;2022-07-22T01:06:48;6.80;;;6.10;;
67804;SDS011;54603;45.638;11.714;2022-07-22T01:09:13;7.20;;;6.20;;
67804;SDS011;54603;45.638;11.714;2022-07-22T01:11:39;8.70;;;6.30;;
67804;SDS011;54603;45.638;11.714;2022-07-22T01:14:06;8.10;;;6.20;;
67804;SDS011;54603;45.638;11.714;2022-07-22T01:16:32;8.40;;;6.20;;
67804;SDS011;54603;45.638;11.714;2022-07-22T01:18:58;7.50;;;6.10;;
67804;SDS011;54603;45.638;11.714;2022-07-22T01:21:23;8.20;;;5.80;;
67804;SDS011;54603;45.638;11.714;2022-07-22T01:23:49;7.40;;;6.10;;
67804;SDS011;54603;45.638;11.714;2022-07-22T01:26:15;7.70;;;6.40;;
67804;SDS011;54603;45.638;11.714;2022-07-22T01:28:42;7.90;;;6.30;;
67804;SDS011;54603;45.638;11.714;2022-07-22T01:31:08;8.30;;;6.30;;
67804;SDS011;54603;45.638;11.714;2022-07-22T01:33:34;8.10;;;6.00;;
67804;SDS011;54603;45.638;11.714;2022-07-22T01:36:00;9.70;;;6.40;;
67804;SDS011;54603;45.638;11.714;2022-07-22T01:38:26;8.70;;;6.50;;
67804;SDS011;54603;45.638;11.714;2022-07-22T01:40:52;7.00;;;6.20;;
67804;SDS011;54603;45.638;11.714;2022-07-22T01:43:18;8.40;;;6.60;;
67804;SDS011;54603;45.638;11.714;2022-07-22T01:45:47;7.80;;;6.00;;
67804;SDS011;54603;45.638;11.714;2022-07-22T01:48:14;10.30;;;6.20;;
67804;SDS011;54603;45.638;11.714;2022-07-22T01:50:41;8.40;;;6.40;;
67804;SDS011;54603;45.638;11.714;2022-07-22T01:53:07;9.40;;;6.40;;
67804;SDS011;54603;45.638;11.714;2022-07-22T01:55:33;9.00;;;5.90;;
67804;SDS011;54603;45.638;11.714;2022-07-22T01:57:59;7.60;;;6.70;;
67804;SDS011;54603;45.638;11.714;2022-07-22T02:00:25;8.30;;;6.90;;
67804;SDS011;54603;45.638;11.714;2022-07-22T02:02:51;7.60;;;6.50;;
67804;SDS011;54603;45.638;11.714;2022-07-22T02:05:16;7.90;;;7.20;;
67804;SDS011;54603;45.638;11.714;2022-07-22T02:07:42;9.00;;;6.70;;
67804;SDS011;54603;45.638;11.714;2022-07-22T02:10:08;12.50;;;7.30;;
67804;SDS011;54603;45.638;11.714;2022-07-22T02:12:34;7.80;;;6.50;;
67804;SDS011;54603;45.638;11.714;2022-07-22T02:15:00;11.30;;;6.80;;
67804;SDS011;54603;45.638;11.714;2022-07-22T02:17:26;10.50;;;7.60;;
67804;SDS011;54603;45.638;11.714;2022-07-22T02:19:51;11.60;;;6.80;;
67804;SDS011;54603;45.638;11.714;2022-07-22T02:22:17;10.80;;;7.20;;
67804;SDS011;54603;45.638;11.714;2022-07-22T02:24:43;7.80;;;7.00;;
67804;SDS011;54603;45.638;11.714;2022-07-22T02:27:08;8.30;;;7.20;;
67804;SDS011;54603;45.638;11.714;2022-07-22T02:29:34;9.00;;;7.00;;
67804;SDS011;54603;45.638;11.714;2022-07-22T02:32:00;10.50;;;7.10;;
67804;SDS011;54603;45.638;11.714;2022-07-22T02:34:25;10.00;;;7.30;;
67804;SDS011;54603;45.638;11.714;2022-07-22T02:36:52;9.00;;;7.10;;
67804;SDS011;54603;45.638;11.714;2022-07-22T02:39:17;8.70;;;7.50;;
67804;SDS011;54603;45.638;11.714;2022-07-22T02:41:43;9.80;;;7.20;;
67804;SDS011;54603;45.638;11.714;2022-07-22T02:44:09;8.30;;;6.80;;
67804;SDS011;54603;45.638;11.714;2022-07-22T02:46:34;12.60;;;7.30;;
67804;SDS011;54603;45.638;11.714;2022-07-22T02:49:00;8.70;;;7.10;;
67804;SDS011;54603;45.638;11.714;2022-07-22T02:51:26;11.90;;;7.60;;
67804;SDS011;54603;45.638;11.714;2022-07-22T02:53:52;8.40;;;6.60;;
67804;SDS011;54603;45.638;11.714;2022-07-22T02:56:17;8.40;;;7.10;;
67804;SDS011;54603;45.638;11.714;2022-07-22T02:58:45;12.90;;;7.50;;
67804;SDS011;54603;45.638;11.714;2022-07-22T03:01:12;12.00;;;8.20;;
67804;SDS011;54603;45.638;11.714;2022-07-22T03:03:38;11.70;;;7.30;;
67804;SDS011;54603;45.638;11.714;2022-07-22T03:06:04;11.00;;;7.50;;
67804;SDS011;54603;45.638;11.714;2022-07-22T03:08:29;11.60;;;7.30;;
67804;SDS011;54603;45.638;11.714;2022-07-22T03:10:56;10.20;;;7.70;;
67804;SDS011;54603;45.638;11.714;2022-07-22T03:13:22;9.00;;;7.90;;
67804;SDS011;54603;45.638;11.714;2022-07-22T03:15:47;8.50;;;7.50;;
67804;SDS011;54603;45.638;11.714;2022-07-22T03:18:13;9.00;;;7.30;;
67804;SDS011;54603;45.638;11.714;2022-07-22T03:20:39;10.40;;;7.20;;
67804;SDS011;54603;45.638;11.714;2022-07-22T03:23:05;9.60;;;7.50;;
67804;SDS011;54603;45.638;11.714;2022-07-22T03:25:31;8.20;;;7.40;;
67804;SDS011;54603;45.638;11.714;2022-07-22T03:27:57;8.60;;;7.30;;
67804;SDS011;54603;45.638;11.714;2022-07-22T03:30:23;8.10;;;7.30;;
67804;SDS011;54603;45.638;11.714;2022-07-22T03:32:49;10.20;;;7.10;;
67804;SDS011;54603;45.638;11.714;2022-07-22T03:35:15;8.60;;;7.10;;
67804;SDS011;54603;45.638;11.714;2022-07-22T03:37:41;11.40;;;7.10;;
67804;SDS011;54603;45.638;11.714;2022-07-22T03:40:08;10.00;;;6.80;;
67804;SDS011;54603;45.638;11.714;2022-07-22T03:42:35;11.80;;;7.50;;
67804;SDS011;54603;45.638;11.714;2022-07-22T03:45:00;12.10;;;6.90;;
67804;SDS011;54603;45.638;11.714;2022-07-22T03:47:26;10.00;;;6.60;;
67804;SDS011;54603;45.638;11.714;2022-07-22T03:49:52;10.80;;;7.10;;
67804;SDS011;54603;45.638;11.714;2022-07-22T03:52:17;10.80;;;6.70;;
67804;SDS011;54603;45.638;11.714;2022-07-22T03:54:44;10.40;;;7.10;;
67804;SDS011;54603;45.638;11.714;2022-07-22T03:57:10;10.70;;;6.90;;
67804;SDS011;54603;45.638;11.714;2022-07-22T03:59:36;9.20;;;6.80;;
67804;SDS011;54603;45.638;11.714;2022-07-22T04:02:02;10.70;;;7.20;;
67804;SDS011;54603;45.638;11.714;2022-07-22T04:04:28;11.10;;;7.20;;
67804;SDS011;54603;45.638;11.714;2022-07-22T04:06:53;11.90;;;6.70;;
67804;SDS011;54603;45.638;11.714;2022-07-22T04:09:19;12.90;;;7.20;;
67804;SDS011;54603;45.638;11.714;2022-07-22T04:11:45;10.60;;;7.30;;
67804;SDS011;54603;45.638;11.714;2022-07-22T04:14:11;8.90;;;6.70;;
67804;SDS011;54603;45.638;11.714;2022-07-22T04:16:37;10.80;;;7.10;;
67804;SDS011;54603;45.638;11.714;2022-07-22T04:19:02;8.30;;;7.00;;
67804;SDS011;54603;45.638;11.714;2022-07-22T04:21:28;10.90;;;7.40;;
67804;SDS011;54603;45.638;11.714;2022-07-22T04:23:54;8.40;;;7.10;;
67804;SDS011;54603;45.638;11.714;2022-07-22T04:26:20;9.80;;;6.80;;
67804;SDS011;54603;45.638;11.714;2022-07-22T04:28:47;8.80;;;7.40;;
67804;SDS011;54603;45.638;11.714;2022-07-22T04:31:12;12.70;;;7.10;;
67804;SDS011;54603;45.638;11.714;2022-07-22T04:33:38;15.60;;;7.50;;
67804;SDS011;54603;45.638;11.714;2022-07-22T04:36:04;12.20;;;7.20;;
67804;SDS011;54603;45.638;11.714;2022-07-22T04:38:30;10.60;;;7.50;;
67804;SDS011;54603;45.638;11.714;2022-07-22T04:40:56;8.90;;;6.50;;
67804;SDS011;54603;45.638;11.714;2022-07-22T04:43:22;10.00;;;7.10;;
67804;SDS011;54603;45.638;11.714;2022-07-22T04:45:48;10.10;;;6.80;;
67804;SDS011;54603;45.638;11.714;2022-07-22T04:48:14;10.20;;;6.80;;
67804;SDS011;54603;45.638;11.714;2022-07-22T04:50:39;9.30;;;6.90;;
67804;SDS011;54603;45.638;11.714;2022-07-22T04:53:05;8.60;;;6.60;;
67804;SDS011;54603;45.638;11.714;2022-07-22T04:55:30;15.00;;;6.90;;
67804;SDS011;54603;45.638;11.714;2022-07-22T04:57:56;9.60;;;7.10;;
67804;SDS011;54603;45.638;11.714;2022-07-22T05:00:22;9.10;;;7.30;;
67804;SDS011;54603;45.638;11.714;2022-07-22T05:02:49;11.40;;;7.20;;
67804;SDS011;54603;45.638;11.714;2022-07-22T05:05:14;10.10;;;7.10;;
67804;SDS011;54603;45.638;11.714;2022-07-22T05:07:40;10.00;;;7.00;;
67804;SDS011;54603;45.638;11.714;2022-07-22T05:10:06;7.70;;;6.70;;
67804;SDS011;54603;45.638;11.714;2022-07-22T05:12:32;13.20;;;6.90;;
67804;SDS011;54603;45.638;11.714;2022-07-22T05:14:57;10.10;;;6.90;;
67804;SDS011;54603;45.638;11.714;2022-07-22T05:17:23;14.70;;;7.90;;
67804;SDS011;54603;45.638;11.714;2022-07-22T05:19:49;11.60;;;8.20;;
67804;SDS011;54603;45.638;11.714;2022-07-22T05:22:14;17.90;;;9.80;;
67804;SDS011;54603;45.638;11.714;2022-07-22T05:24:40;16.60;;;9.40;;
67804;SDS011;54603;45.638;11.714;2022-07-22T05:27:05;15.90;;;9.10;;
67804;SDS011;54603;45.638;11.714;2022-07-22T05:29:31;16.00;;;9.10;;
67804;SDS011;54603;45.638;11.714;2022-07-22T05:31:57;14.40;;;8.80;;
67804;SDS011;54603;45.638;11.714;2022-07-22T05:34:22;12.60;;;8.10;;
67804;SDS011;54603;45.638;11.714;2022-07-22T05:36:48;16.40;;;8.30;;
67804;SDS011;54603;45.638;11.714;2022-07-22T05:39:14;13.50;;;8.00;;
67804;SDS011;54603;45.638;11.714;2022-07-22T05:41:40;14.80;;;8.70;;
67804;SDS011;54603;45.638;11.714;2022-07-22T05:44:05;17.30;;;10.40;;
67804;SDS011;54603;45.638;11.714;2022-07-22T05:46:31;18.40;;;10.40;;
67804;SDS011;54603;45.638;11.714;2022-07-22T05:48:57;13.70;;;9.50;;
67804;SDS011;54603;45.638;11.714;2022-07-22T05:51:22;20.40;;;9.90;;
67804;SDS011;54603;45.638;11.714;2022-07-22T05:53:50;11.70;;;9.80;;
67804;SDS011;54603;45.638;11.714;2022-07-22T05:56:18;10.90;;;8.30;;
67804;SDS011;54603;45.638;11.714;2022-07-22T05:58:52;12.00;;;8.50;;
67804;SDS011;54603;45.638;11.714;2022-07-22T06:01:22;16.70;;;10.40;;
67804;SDS011;54603;45.638;11.714;2022-07-22T06:03:48;13.70;;;10.10;;
67804;SDS011;54603;45.638;11.714;2022-07-22T06:06:13;11.40;;;10.10;;
67804;SDS011;54603;45.638;11.714;2022-07-22T06:08:40;12.80;;;9.70;;
67804;SDS011;54603;45.638;11.714;2022-07-22T06:11:10;15.90;;;9.80;;
67804;SDS011;54603;45.638;11.714;2022-07-22T06:13:36;16.80;;;10.80;;
67804;SDS011;54603;45.638;11.714;2022-07-22T06:16:02;19.70;;;10.50;;
67804;SDS011;54603;45.638;11.714;2022-07-22T06:18:28;13.40;;;8.70;;
67804;SDS011;54603;45.638;11.714;2022-07-22T06:20:54;11.10;;;8.60;;
67804;SDS011;54603;45.638;11.714;2022-07-22T06:23:20;12.50;;;7.90;;
67804;SDS011;54603;45.638;11.714;2022-07-22T06:25:46;10.60;;;7.70;;
67804;SDS011;54603;45.638;11.714;2022-07-22T06:28:19;11.50;;;7.40;;
67804;SDS011;54603;45.638;11.714;2022-07-22T06:30:45;8.90;;;7.30;;
67804;SDS011;54603;45.638;11.714;2022-07-22T06:33:11;9.70;;;6.80;;
67804;SDS011;54603;45.638;11.714;2022-07-22T06:35:39;12.90;;;6.90;;
67804;SDS011;54603;45.638;11.714;2022-07-22T06:38:06;7.50;;;6.70;;
67804;SDS011;54603;45.638;11.714;2022-07-22T06:40:32;10.20;;;6.40;;
67804;SDS011;54603;45.638;11.714;2022-07-22T06:42:58;8.60;;;6.60;;
67804;SDS011;54603;45.638;11.714;2022-07-22T06:45:24;7.80;;;6.10;;
67804;SDS011;54603;45.638;11.714;2022-07-22T06:47:49;7.00;;;5.60;;
67804;SDS011;54603;45.638;11.714;2022-07-22T06:50:15;7.50;;;6.00;;
67804;SDS011;54603;45.638;11.714;2022-07-22T06:52:41;9.70;;;5.80;;
67804;SDS011;54603;45.638;11.714;2022-07-22T06:55:08;9.00;;;6.00;;
67804;SDS011;54603;45.638;11.714;2022-07-22T06:57:34;7.30;;;5.60;;
67804;SDS011;54603;45.638;11.714;2022-07-22T07:00:00;7.80;;;6.30;;
67804;SDS011;54603;45.638;11.714;2022-07-22T07:02:25;6.50;;;5.90;;
67804;SDS011;54603;45.638;11.714;2022-07-22T07:04:51;7.70;;;5.60;;
67804;SDS011;54603;45.638;11.714;2022-07-22T07:07:17;6.70;;;5.60;;
67804;SDS011;54603;45.638;11.714;2022-07-22T07:09:42;10.10;;;6.10;;
67804;SDS011;54603;45.638;11.714;2022-07-22T07:12:08;8.60;;;6.00;;
67804;SDS011;54603;45.638;11.714;2022-07-22T07:14:33;6.10;;;5.50;;
67804;SDS011;54603;45.638;11.714;2022-07-22T07:16:59;6.00;;;5.40;;
67804;SDS011;54603;45.638;11.714;2022-07-22T07:19:25;6.60;;;5.60;;
67804;SDS011;54603;45.638;11.714;2022-07-22T07:21:51;6.80;;;5.70;;
67804;SDS011;54603;45.638;11.714;2022-07-22T07:24:17;6.10;;;5.30;;
67804;SDS011;54603;45.638;11.714;2022-07-22T07:26:42;5.80;;;5.30;;
67804;SDS011;54603;45.638;11.714;2022-07-22T07:29:08;7.90;;;5.30;;
67804;SDS011;54603;45.638;11.714;2022-07-22T07:31:33;6.70;;;5.70;;
67804;SDS011;54603;45.638;11.714;2022-07-22T07:33:59;6.70;;;5.10;;
67804;SDS011;54603;45.638;11.714;2022-07-22T07:36:25;6.00;;;5.40;;
67804;SDS011;54603;45.638;11.714;2022-07-22T07:38:50;7.40;;;5.10;;
67804;SDS011;54603;45.638;11.714;2022-07-22T07:41:17;6.70;;;5.10;;
67804;SDS011;54603;45.638;11.714;2022-07-22T07:43:44;7.10;;;5.20;;
67804;SDS011;54603;45.638;11.714;2022-07-22T07:46:10;5.50;;;4.70;;
67804;SDS011;54603;45.638;11.714;2022-07-22T07:48:35;5.60;;;5.10;;
67804;SDS011;54603;45.638;11.714;2022-07-22T07:51:01;6.40;;;5.00;;
67804;SDS011;54603;45.638;11.714;2022-07-22T07:53:27;6.70;;;5.00;;
67804;SDS011;54603;45.638;11.714;2022-07-22T07:55:52;9.50;;;5.10;;
67804;SDS011;54603;45.638;11.714;2022-07-22T07:58:18;13.10;;;5.30;;
67804;SDS011;54603;45.638;11.714;2022-07-22T08:00:44;5.80;;;5.20;;
67804;SDS011;54603;45.638;11.714;2022-07-22T08:03:10;5.30;;;4.80;;
67804;SDS011;54603;45.638;11.714;2022-07-22T08:05:36;8.80;;;4.90;;
67804;SDS011;54603;45.638;11.714;2022-07-22T08:08:05;6.40;;;5.00;;
67804;SDS011;54603;45.638;11.714;2022-07-22T08:10:31;6.20;;;4.80;;
67804;SDS011;54603;45.638;11.714;2022-07-22T08:12:57;5.80;;;5.20;;
67804;SDS011;54603;45.638;11.714;2022-07-22T08:15:25;5.30;;;4.60;;
67804;SDS011;54603;45.638;11.714;2022-07-22T08:17:51;7.50;;;5.00;;
67804;SDS011;54603;45.638;11.714;2022-07-22T08:20:17;9.20;;;5.50;;
67804;SDS011;54603;45.638;11.714;2022-07-22T08:22:43;6.20;;;4.90;;
67804;SDS011;54603;45.638;11.714;2022-07-22T08:25:09;5.70;;;5.00;;
67804;SDS011;54603;45.638;11.714;2022-07-22T08:27:35;5.80;;;4.90;;
67804;SDS011;54603;45.638;11.714;2022-07-22T08:30:01;5.80;;;4.60;;
67804;SDS011;54603;45.638;11.714;2022-07-22T08:32:29;7.10;;;5.40;;
67804;SDS011;54603;45.638;11.714;2022-07-22T08:34:55;5.70;;;5.10;;
67804;SDS011;54603;45.638;11.714;2022-07-22T08:37:21;6.70;;;5.10;;
67804;SDS011;54603;45.638;11.714;2022-07-22T08:39:47;5.30;;;4.60;;
67804;SDS011;54603;45.638;11.714;2022-07-22T08:42:12;6.20;;;5.00;;
67804;SDS011;54603;45.638;11.714;2022-07-22T08:44:39;5.70;;;5.00;;
67804;SDS011;54603;45.638;11.714;2022-07-22T08:47:05;6.60;;;5.20;;
67804;SDS011;54603;45.638;11.714;2022-07-22T08:49:30;5.90;;;4.90;;
67804;SDS011;54603;45.638;11.714;2022-07-22T08:51:56;8.40;;;5.00;;
67804;SDS011;54603;45.638;11.714;2022-07-22T08:54:22;6.30;;;5.00;;
67804;SDS011;54603;45.638;11.714;2022-07-22T08:56:48;6.60;;;5.00;;
67804;SDS011;54603;45.638;11.714;2022-07-22T08:59:15;6.60;;;5.00;;
67804;SDS011;54603;45.638;11.714;2022-07-22T09:04:29;7.40;;;5.10;;
67804;SDS011;54603;45.638;11.714;2022-07-22T09:06:56;6.70;;;5.20;;
67804;SDS011;54603;45.638;11.714;2022-07-22T09:09:30;6.80;;;5.20;;
67804;SDS011;54603;45.638;11.714;2022-07-22T09:12:04;6.60;;;4.90;;
67804;SDS011;54603;45.638;11.714;2022-07-22T09:15:13;7.70;;;5.20;;
67804;SDS011;54603;45.638;11.714;2022-07-22T09:17:33;7.30;;;5.40;;
67804;SDS011;54603;45.638;11.714;2022-07-22T09:20:04;5.80;;;5.30;;
67804;SDS011;54603;45.638;11.714;2022-07-22T09:22:42;9.10;;;4.90;;
67804;SDS011;54603;45.638;11.714;2022-07-22T09:27:54;5.60;;;5.00;;
67804;SDS011;54603;45.638;11.714;2022-07-22T09:30:40;6.30;;;5.00;;
67804;SDS011;54603;45.638;11.714;2022-07-22T09:33:06;8.80;;;5.10;;
67804;SDS011;54603;45.638;11.714;2022-07-22T09:35:33;8.70;;;5.20;;
67804;SDS011;54603;45.638;11.714;2022-07-22T09:38:00;8.10;;;5.30;;
67804;SDS011;54603;45.638;11.714;2022-07-22T09:40:29;5.90;;;4.80;;
67804;SDS011;54603;45.638;11.714;2022-07-22T09:42:57;9.80;;;4.80;;
67804;SDS011;54603;45.638;11.714;2022-07-22T09:45:25;7.30;;;4.60;;
67804;SDS011;54603;45.638;11.714;2022-07-22T09:47:56;7.90;;;5.40;;
67804;SDS011;54603;45.638;11.714;2022-07-22T09:50:23;5.20;;;4.40;;
67804;SDS011;54603;45.638;11.714;2022-07-22T09:52:51;6.10;;;5.10;;
67804;SDS011;54603;45.638;11.714;2022-07-22T09:55:19;4.90;;;4.40;;
67804;SDS011;54603;45.638;11.714;2022-07-22T09:57:45;8.00;;;5.00;;
67804;SDS011;54603;45.638;11.714;2022-07-22T10:00:13;6.50;;;5.00;;
67804;SDS011;54603;45.638;11.714;2022-07-22T10:02:46;8.00;;;5.00;;
67804;SDS011;54603;45.638;11.714;2022-07-22T10:05:12;6.30;;;4.90;;
67804;SDS011;54603;45.638;11.714;2022-07-22T10:07:40;8.00;;;5.00;;
67804;SDS011;54603;45.638;11.714;2022-07-22T10:10:07;6.50;;;4.90;;
67804;SDS011;54603;45.638;11.714;2022-07-22T10:12:34;6.20;;;4.80;;
67804;SDS011;54603;45.638;11.714;2022-07-22T10:15:02;6.10;;;5.00;;
67804;SDS011;54603;45.638;11.714;2022-07-22T10:17:28;6.90;;;5.30;;
67804;SDS011;54603;45.638;11.714;2022-07-22T10:19:54;5.60;;;5.00;;
67804;SDS011;54603;45.638;11.714;2022-07-22T10:25:04;6.00;;;5.00;;
67804;SDS011;54603;45.638;11.714;2022-07-22T10:27:43;7.00;;;5.10;;
67804;SDS011;54603;45.638;11.714;2022-07-22T10:30:10;5.70;;;5.10;;
67804;SDS011;54603;45.638;11.714;2022-07-22T10:32:36;5.60;;;4.70;;
67804;SDS011;54603;45.638;11.714;2022-07-22T10:45:24;7.70;;;4.80;;
67804;SDS011;54603;45.638;11.714;2022-07-22T10:48:00;5.20;;;4.70;;
67804;SDS011;54603;45.638;11.714;2022-07-22T10:55:35;10.60;;;5.10;;
67804;SDS011;54603;45.638;11.714;2022-07-22T11:01:00;7.90;;;5.10;;
67804;SDS011;54603;45.638;11.714;2022-07-22T11:03:28;5.40;;;4.40;;
67804;SDS011;54603;45.638;11.714;2022-07-22T11:05:55;6.30;;;4.70;;
67804;SDS011;54603;45.638;11.714;2022-07-22T11:08:26;4.90;;;4.50;;
67804;SDS011;54603;45.638;11.714;2022-07-22T11:10:52;6.60;;;5.10;;
67804;SDS011;54603;45.638;11.714;2022-07-22T11:13:30;5.90;;;4.30;;
67804;SDS011;54603;45.638;11.714;2022-07-22T11:16:12;7.70;;;5.00;;
67804;SDS011;54603;45.638;11.714;2022-07-22T11:18:53;5.70;;;4.70;;
67804;SDS011;54603;45.638;11.714;2022-07-22T11:21:24;5.10;;;4.60;;
67804;SDS011;54603;45.638;11.714;2022-07-22T11:23:53;6.50;;;4.80;;
67804;SDS011;54603;45.638;11.714;2022-07-22T11:26:24;12.90;;;5.00;;
67804;SDS011;54603;45.638;11.714;2022-07-22T11:31:17;5.60;;;4.90;;
67804;SDS011;54603;45.638;11.714;2022-07-22T11:33:44;5.20;;;4.60;;
67804;SDS011;54603;45.638;11.714;2022-07-22T11:36:10;6.10;;;4.80;;
67804;SDS011;54603;45.638;11.714;2022-07-22T11:38:40;6.50;;;5.20;;
67804;SDS011;54603;45.638;11.714;2022-07-22T11:41:13;5.30;;;4.80;;
67804;SDS011;54603;45.638;11.714;2022-07-22T11:43:41;6.20;;;4.60;;
67804;SDS011;54603;45.638;11.714;2022-07-22T11:46:07;5.80;;;4.90;;
67804;SDS011;54603;45.638;11.714;2022-07-22T11:48:33;5.70;;;5.00;;
67804;SDS011;54603;45.638;11.714;2022-07-22T11:51:01;6.40;;;4.60;;
67804;SDS011;54603;45.638;11.714;2022-07-22T11:53:27;10.40;;;5.10;;
67804;SDS011;54603;45.638;11.714;2022-07-22T11:56:00;16.00;;;5.40;;
67804;SDS011;54603;45.638;11.714;2022-07-22T12:01:09;8.90;;;5.00;;
67804;SDS011;54603;45.638;11.714;2022-07-22T12:03:37;6.10;;;5.30;;
67804;SDS011;54603;45.638;11.714;2022-07-22T12:06:06;9.40;;;5.00;;
67804;SDS011;54603;45.638;11.714;2022-07-22T12:08:34;5.20;;;4.70;;
67804;SDS011;54603;45.638;11.714;2022-07-22T12:11:04;7.20;;;5.10;;
67804;SDS011;54603;45.638;11.714;2022-07-22T12:13:31;7.20;;;5.10;;
67804;SDS011;54603;45.638;11.714;2022-07-22T12:16:16;6.00;;;5.40;;
67804;SDS011;54603;45.638;11.714;2022-07-22T12:18:55;9.10;;;5.20;;
67804;SDS011;54603;45.638;11.714;2022-07-22T12:21:32;7.20;;;5.00;;
67804;SDS011;54603;45.638;11.714;2022-07-22T12:24:05;5.60;;;5.00;;
67804;SDS011;54603;45.638;11.714;2022-07-22T12:26:48;8.70;;;5.10;;
67804;SDS011;54603;45.638;11.714;2022-07-22T12:31:52;6.00;;;5.40;;
67804;SDS011;54603;45.638;11.714;2022-07-22T12:34:31;6.30;;;4.80;;
67804;SDS011;54603;45.638;11.714;2022-07-22T12:37:11;6.00;;;5.20;;
67804;SDS011;54603;45.638;11.714;2022-07-22T12:39:53;5.70;;;5.10;;
67804;SDS011;54603;45.638;11.714;2022-07-22T12:42:18;5.70;;;5.10;;
67804;SDS011;54603;45.638;11.714;2022-07-22T12:50:35;5.90;;;4.90;;
67804;SDS011;54603;45.638;11.714;2022-07-22T12:53:04;5.20;;;4.70;;
67804;SDS011;54603;45.638;11.714;2022-07-22T12:55:32;6.00;;;4.80;;
67804;SDS011;54603;45.638;11.714;2022-07-22T12:57:58;5.50;;;4.90;;
67804;SDS011;54603;45.638;11.714;2022-07-22T13:00:25;6.70;;;5.10;;
67804;SDS011;54603;45.638;11.714;2022-07-22T13:02:53;5.80;;;4.80;;
67804;SDS011;54603;45.638;11.714;2022-07-22T13:05:20;8.00;;;5.00;;
67804;SDS011;54603;45.638;11.714;2022-07-22T13:07:46;4.90;;;4.40;;
67804;SDS011;54603;45.638;11.714;2022-07-22T13:10:13;5.80;;;4.90;;
67804;SDS011;54603;45.638;11.714;2022-07-22T13:12:40;8.10;;;4.60;;
67804;SDS011;54603;45.638;11.714;2022-07-22T13:15:06;6.60;;;4.90;;
67804;SDS011;54603;45.638;11.714;2022-07-22T13:17:34;5.60;;;5.00;;
67804;SDS011;54603;45.638;11.714;2022-07-22T13:20:04;5.40;;;4.80;;
67804;SDS011;54603;45.638;11.714;2022-07-22T13:22:34;8.00;;;4.70;;
67804;SDS011;54603;45.638;11.714;2022-07-22T13:25:01;5.20;;;4.80;;
67804;SDS011;54603;45.638;11.714;2022-07-22T13:27:27;9.80;;;4.60;;
67804;SDS011;54603;45.638;11.714;2022-07-22T13:29:53;5.30;;;4.60;;
67804;SDS011;54603;45.638;11.714;2022-07-22T13:32:18;5.20;;;4.70;;
67804;SDS011;54603;45.638;11.714;2022-07-22T13:34:44;6.00;;;4.80;;
67804;SDS011;54603;45.638;11.714;2022-07-22T13:37:10;5.50;;;4.90;;
67804;SDS011;54603;45.638;11.714;2022-07-22T13:39:35;5.40;;;4.90;;
67804;SDS011;54603;45.638;11.714;2022-07-22T13:42:01;11.90;;;4.90;;
67804;SDS011;54603;45.638;11.714;2022-07-22T13:44:27;5.80;;;5.10;;
67804;SDS011;54603;45.638;11.714;2022-07-22T13:46:52;6.20;;;4.60;;
67804;SDS011;54603;45.638;11.714;2022-07-22T13:49:19;5.70;;;5.10;;
67804;SDS011;54603;45.638;11.714;2022-07-22T13:51:49;5.30;;;4.60;;
67804;SDS011;54603;45.638;11.714;2022-07-22T13:54:16;5.70;;;5.00;;
67804;SDS011;54603;45.638;11.714;2022-07-22T13:56:42;7.50;;;4.90;;
67804;SDS011;54603;45.638;11.714;2022-07-22T13:59:09;6.20;;;4.80;;
67804;SDS011;54603;45.638;11.714;2022-07-22T14:01:36;5.30;;;4.80;;
67804;SDS011;54603;45.638;11.714;2022-07-22T14:04:02;5.30;;;4.80;;
67804;SDS011;54603;45.638;11.714;2022-07-22T14:06:29;8.10;;;5.60;;
67804;SDS011;54603;45.638;11.714;2022-07-22T14:08:55;6.10;;;4.90;;
67804;SDS011;54603;45.638;11.714;2022-07-22T14:11:20;6.60;;;5.10;;
67804;SDS011;54603;45.638;11.714;2022-07-22T14:13:46;5.60;;;5.10;;
67804;SDS011;54603;45.638;11.714;2022-07-22T14:16:13;6.30;;;5.10;;
67804;SDS011;54603;45.638;11.714;2022-07-22T14:18:58;7.80;;;5.00;;
67804;SDS011;54603;45.638;11.714;2022-07-22T14:21:23;5.50;;;4.60;;
67804;SDS011;54603;45.638;11.714;2022-07-22T14:23:49;5.80;;;4.80;;
67804;SDS011;54603;45.638;11.714;2022-07-22T14:26:15;5.30;;;4.80;;
67804;SDS011;54603;45.638;11.714;2022-07-22T14:28:40;5.60;;;5.00;;
67804;SDS011;54603;45.638;11.714;2022-07-22T14:31:06;5.10;;;4.70;;
67804;SDS011;54603;45.638;11.714;2022-07-22T14:33:31;5.60;;;4.80;;
67804;SDS011;54603;45.638;11.714;2022-07-22T14:35:57;5.70;;;5.10;;
67804;SDS011;54603;45.638;11.714;2022-07-22T14:38:23;5.10;;;4.70;;
67804;SDS011;54603;45.638;11.714;2022-07-22T14:40:48;5.50;;;4.90;;
67804;SDS011;54603;45.638;11.714;2022-07-22T14:43:14;5.60;;;4.80;;
67804;SDS011;54603;45.638;11.714;2022-07-22T14:45:39;5.60;;;5.10;;
67804;SDS011;54603;45.638;11.714;2022-07-22T14:48:06;6.60;;;5.00;;
67804;SDS011;54603;45.638;11.714;2022-07-22T14:50:31;5.40;;;4.80;;
67804;SDS011;54603;45.638;11.714;2022-07-22T14:52:57;7.40;;;5.50;;
67804;SDS011;54603;45.638;11.714;2022-07-22T14:55:22;5.60;;;5.10;;
67804;SDS011;54603;45.638;11.714;2022-07-22T14:57:48;5.60;;;5.00;;
67804;SDS011;54603;45.638;11.714;2022-07-22T15:00:14;6.30;;;5.40;;
67804;SDS011;54603;45.638;11.714;2022-07-22T15:02:40;6.20;;;5.50;;
67804;SDS011;54603;45.638;11.714;2022-07-22T15:05:06;5.70;;;4.80;;
67804;SDS011;54603;45.638;11.714;2022-07-22T15:07:32;5.50;;;5.00;;
67804;SDS011;54603;45.638;11.714;2022-07-22T15:09:57;6.90;;;5.00;;